createdAt,value
2022-07-27T00:01:00.185Z,2.60
2022-07-27T00:03:27.029Z,2.60
2022-07-27T00:05:53.756Z,2.67
2022-07-27T00:08:20.891Z,2.70
2022-07-27T00:10:48.126Z,2.80
2022-07-27T00:13:14.940Z,2.70
2022-07-27T00:15:42.090Z,2.55
2022-07-27T00:18:09.750Z,2.85
2022-07-27T00:20:36.865Z,2.63
2022-07-27T00:23:03.671Z,2.90
2022-07-27T00:25:30.422Z,2.35
2022-07-27T00:27:57.226Z,2.45
2022-07-27T00:30:24.847Z,2.40
2022-07-27T00:32:52.224Z,2.30
2022-07-27T00:35:19.194Z,2.45
2022-07-27T00:37:46.249Z,2.10
2022-07-27T00:40:13.126Z,2.55
2022-07-27T00:42:39.927Z,2.83
2022-07-27T00:45:07.292Z,2.70
2022-07-27T00:47:34.157Z,2.50
2022-07-27T00:50:01.243Z,2.38
2022-07-27T00:52:28.903Z,2.53
2022-07-27T00:54:55.873Z,2.45
2022-07-27T00:57:23.744Z,2.78
2022-07-27T00:59:50.469Z,2.63
2022-07-27T01:02:19.315Z,2.70
2022-07-27T01:04:47.200Z,2.50
2022-07-27T01:07:15.190Z,2.60
2022-07-27T01:10:03.054Z,2.75
2022-07-27T01:12:32.392Z,2.47
2022-07-27T01:15:00.515Z,2.78
2022-07-27T01:17:30.929Z,2.38
2022-07-27T01:19:59.249Z,2.80
2022-07-27T01:22:27.145Z,2.55
2022-07-27T01:24:54.042Z,2.75
2022-07-27T01:27:21.390Z,2.70
2022-07-27T01:29:48.887Z,2.58
2022-07-27T01:32:16.053Z,2.85
2022-07-27T01:34:42.973Z,2.67
2022-07-27T01:37:10.007Z,2.72
2022-07-27T01:39:36.851Z,2.60
2022-07-27T01:42:04.111Z,2.55
2022-07-27T01:44:31.122Z,2.70
2022-07-27T01:46:57.851Z,2.40
2022-07-27T01:49:24.644Z,2.88
2022-07-27T01:51:51.851Z,2.40
2022-07-27T01:54:18.611Z,3.10
2022-07-27T01:56:45.494Z,2.72
2022-07-27T01:59:16.918Z,2.90
2022-07-27T02:01:44.811Z,3.53
2022-07-27T02:04:11.905Z,2.45
2022-07-27T02:06:39.597Z,2.53
2022-07-27T02:09:06.743Z,2.90
2022-07-27T02:11:52.489Z,2.47
2022-07-27T02:14:21.156Z,3.03
2022-07-27T02:16:48.804Z,2.80
2022-07-27T02:19:18.215Z,2.90
2022-07-27T02:21:45.328Z,2.70
2022-07-27T02:24:12.074Z,2.97
2022-07-27T02:26:38.903Z,2.47
2022-07-27T02:29:05.651Z,3.00
2022-07-27T02:31:32.768Z,2.60
2022-07-27T02:34:00.098Z,2.83
2022-07-27T02:36:29.480Z,2.67
2022-07-27T02:38:57.452Z,2.33
2022-07-27T02:41:25.236Z,2.85
2022-07-27T02:43:52.001Z,2.60
2022-07-27T02:46:18.914Z,2.85
2022-07-27T02:48:45.842Z,3.13
2022-07-27T02:51:12.872Z,3.00
2022-07-27T02:53:39.611Z,2.78
2022-07-27T02:56:06.659Z,2.47
2022-07-27T02:58:33.393Z,2.55
2022-07-27T03:01:00.131Z,2.72
2022-07-27T03:03:33.875Z,2.55
2022-07-27T03:06:03.405Z,2.55
2022-07-27T03:08:30.318Z,2.92
2022-07-27T03:10:57.125Z,2.63
2022-07-27T03:13:23.903Z,2.90
2022-07-27T03:15:50.812Z,2.58
2022-07-27T03:18:18.165Z,2.50
2022-07-27T03:20:45.129Z,2.75
2022-07-27T03:23:12.034Z,2.78
2022-07-27T03:25:39.041Z,2.42
2022-07-27T03:28:06.150Z,3.00
2022-07-27T03:30:33.649Z,2.50
2022-07-27T03:33:00.511Z,2.60
2022-07-27T03:35:27.590Z,2.50
2022-07-27T03:37:54.545Z,2.80
2022-07-27T03:40:21.443Z,3.05
2022-07-27T03:42:48.295Z,3.10
2022-07-27T03:45:15.162Z,2.60
2022-07-27T03:47:41.968Z,2.50
2022-07-27T03:50:08.981Z,2.67
2022-07-27T03:52:35.845Z,2.90
2022-07-27T03:55:02.647Z,3.28
2022-07-27T03:57:30.306Z,2.45
2022-07-27T03:59:57.141Z,2.72
2022-07-27T04:02:24.043Z,3.00
2022-07-27T04:04:51.177Z,2.80
2022-07-27T04:07:18.293Z,2.70
2022-07-27T04:12:10.310Z,2.93
2022-07-27T04:14:37.384Z,2.80
2022-07-27T04:17:04.914Z,2.60
2022-07-27T04:19:31.863Z,2.95
2022-07-27T04:21:58.666Z,2.80
2022-07-27T04:24:27.083Z,2.85
2022-07-27T04:26:54.000Z,2.55
2022-07-27T04:29:21.600Z,3.20
2022-07-27T04:31:49.144Z,2.70
2022-07-27T04:34:16.061Z,2.95
2022-07-27T04:36:42.975Z,3.05
2022-07-27T04:39:10.006Z,2.70
2022-07-27T04:41:37.101Z,2.88
2022-07-27T04:46:42.950Z,2.88
2022-07-27T04:49:10.081Z,3.10
2022-07-27T04:51:37.119Z,2.75
2022-07-27T04:54:04.050Z,2.70
2022-07-27T04:56:31.034Z,2.65
2022-07-27T04:58:57.836Z,3.17
2022-07-27T05:01:27.381Z,2.90
2022-07-27T05:03:56.068Z,2.90
2022-07-27T05:06:22.836Z,3.28
2022-07-27T05:08:49.621Z,2.78
2022-07-27T05:11:16.529Z,2.95
2022-07-27T05:13:43.345Z,2.78
2022-07-27T05:16:11.487Z,2.30
2022-07-27T05:18:39.204Z,2.55
2022-07-27T05:21:07.820Z,2.58
2022-07-27T05:23:35.085Z,2.63
2022-07-27T05:26:02.121Z,2.47
2022-07-27T05:28:29.054Z,2.53
2022-07-27T05:30:56.772Z,2.40
2022-07-27T05:33:23.541Z,2.75
2022-07-27T05:35:50.311Z,2.42
2022-07-27T05:38:17.252Z,2.35
2022-07-27T05:40:45.607Z,2.47
2022-07-27T05:43:12.441Z,2.60
2022-07-27T05:45:39.492Z,2.42
2022-07-27T05:48:06.423Z,2.97
2022-07-27T05:50:33.183Z,2.50
2022-07-27T05:53:00.841Z,2.13
2022-07-27T05:55:27.765Z,2.20
2022-07-27T05:57:54.554Z,2.50
2022-07-27T06:00:21.361Z,2.38
2022-07-27T06:02:48.114Z,2.13
2022-07-27T06:05:17.216Z,2.55
2022-07-27T06:10:37.711Z,2.20
2022-07-27T06:13:07.358Z,2.22
2022-07-27T06:18:02.847Z,2.08
2022-07-27T06:20:30.435Z,1.95
2022-07-27T06:23:00.555Z,2.28
2022-07-27T06:25:34.356Z,2.10
2022-07-27T06:28:06.322Z,2.47
2022-07-27T06:30:33.472Z,1.90
2022-07-27T06:33:04.341Z,2.33
2022-07-27T06:35:31.770Z,2.55
2022-07-27T06:37:58.557Z,2.25
2022-07-27T06:40:29.453Z,2.50
2022-07-27T06:42:56.629Z,2.28
2022-07-27T06:45:23.372Z,2.40
2022-07-27T06:47:51.312Z,1.88
2022-07-27T06:50:20.577Z,1.90
2022-07-27T06:52:48.227Z,2.10
2022-07-27T06:55:16.101Z,2.42
2022-07-27T06:57:43.884Z,2.10
2022-07-27T07:00:12.009Z,2.40
2022-07-27T07:02:40.386Z,2.20
2022-07-27T07:05:07.467Z,2.70
2022-07-27T07:07:34.408Z,2.40
2022-07-27T07:10:01.243Z,2.30
2022-07-27T07:12:28.584Z,2.60
2022-07-27T07:14:55.528Z,2.42
2022-07-27T07:17:22.338Z,2.28
2022-07-27T07:19:49.261Z,2.20
2022-07-27T07:22:16.025Z,2.78
2022-07-27T07:24:42.742Z,2.63
2022-07-27T07:27:09.537Z,2.60
2022-07-27T07:29:36.507Z,2.80
2022-07-27T07:32:03.390Z,2.30
2022-07-27T07:34:30.151Z,2.30
2022-07-27T07:36:56.955Z,2.03
2022-07-27T07:39:29.160Z,2.03
2022-07-27T07:41:57.877Z,2.20
2022-07-27T07:44:24.834Z,2.50
2022-07-27T07:46:51.829Z,2.00
2022-07-27T07:49:19.188Z,2.10
2022-07-27T07:52:06.009Z,2.05
2022-07-27T07:54:32.880Z,1.90
2022-07-27T07:56:59.618Z,1.95
2022-07-27T07:59:26.861Z,1.95
2022-07-27T08:01:53.690Z,2.53
2022-07-27T08:04:20.539Z,2.55
2022-07-27T08:06:47.380Z,2.13
2022-07-27T08:09:17.095Z,1.90
2022-07-27T08:11:44.536Z,2.13
2022-07-27T08:14:11.403Z,2.25
2022-07-27T08:16:38.408Z,2.58
2022-07-27T08:19:05.485Z,2.42
2022-07-27T08:21:36.134Z,1.98
2022-07-27T08:24:03.508Z,1.95
2022-07-27T08:26:30.305Z,2.15
2022-07-27T08:28:57.429Z,2.30
2022-07-27T08:31:52.967Z,1.80
2022-07-27T08:34:13.370Z,1.65
2022-07-27T08:36:40.195Z,2.17
2022-07-27T08:39:08.742Z,2.00
2022-07-27T08:41:43.200Z,2.10
2022-07-27T08:44:14.335Z,2.28
2022-07-27T08:46:44.823Z,2.13
2022-07-27T08:49:13.714Z,2.83
2022-07-27T08:54:14.509Z,2.33
2022-07-27T08:56:41.398Z,2.22
2022-07-27T08:59:08.119Z,2.50
2022-07-27T09:01:38.767Z,2.33
2022-07-27T09:04:08.274Z,2.13
2022-07-27T09:06:54.250Z,2.45
2022-07-27T09:09:22.333Z,1.98
2022-07-27T09:12:07.300Z,2.08
2022-07-27T09:14:35.962Z,2.20
2022-07-27T09:17:47.987Z,2.70
2022-07-27T09:20:18.899Z,2.47
2022-07-27T09:22:55.110Z,2.08
2022-07-27T09:25:52.241Z,2.63
2022-07-27T09:28:12.016Z,2.47
2022-07-27T09:30:45.490Z,2.67
2022-07-27T09:33:15.799Z,2.17
2022-07-27T09:35:42.672Z,2.25
2022-07-27T09:38:23.710Z,2.42
2022-07-27T09:41:05.101Z,2.40
2022-07-27T09:46:36.294Z,1.90
2022-07-27T09:49:04.546Z,2.10
2022-07-27T09:51:58.783Z,2.05
2022-07-27T09:54:20.148Z,2.90
2022-07-27T09:57:01.876Z,2.92
2022-07-27T09:59:30.027Z,2.97
2022-07-27T10:01:57.662Z,2.50
2022-07-27T10:04:25.134Z,3.80
2022-07-27T10:07:12.663Z,3.13
2022-07-27T10:09:39.680Z,3.45
2022-07-27T10:12:06.907Z,2.75
2022-07-27T10:14:33.711Z,2.60
2022-07-27T10:17:01.311Z,2.70
2022-07-27T10:19:46.950Z,2.28
2022-07-27T10:22:14.820Z,2.53
2022-07-27T10:24:41.870Z,2.60
2022-07-27T10:27:29.820Z,3.08
2022-07-27T10:29:58.133Z,3.10
2022-07-27T10:32:27.740Z,3.23
2022-07-27T10:34:55.745Z,2.60
2022-07-27T10:37:30.914Z,2.83
2022-07-27T10:40:18.517Z,2.70
2022-07-27T10:42:51.897Z,2.40
2022-07-27T10:45:21.402Z,2.78
2022-07-27T10:47:52.636Z,2.80
2022-07-27T10:50:21.646Z,2.70
2022-07-27T10:53:06.240Z,2.53
2022-07-27T10:55:34.221Z,2.22
2022-07-27T10:58:10.226Z,3.00
2022-07-27T11:00:54.168Z,3.28
2022-07-27T11:03:29.310Z,3.13
2022-07-27T11:06:08.924Z,3.03
2022-07-27T11:08:47.846Z,3.00
2022-07-27T11:11:20.878Z,2.70
2022-07-27T11:13:50.951Z,2.50
2022-07-27T11:16:24.568Z,3.08
2022-07-27T11:18:55.745Z,2.50
2022-07-27T11:21:29.534Z,3.20
2022-07-27T11:23:59.441Z,3.50
2022-07-27T11:26:28.241Z,4.15
2022-07-27T11:28:55.035Z,4.38
2022-07-27T11:31:38.659Z,4.05
2022-07-27T11:34:10.339Z,3.95
2022-07-27T11:36:50.332Z,4.25
2022-07-27T11:39:49.727Z,4.00
2022-07-27T11:42:12.259Z,3.75
2022-07-27T11:44:41.338Z,4.30
2022-07-27T11:47:09.163Z,4.18
2022-07-27T11:49:35.997Z,2.95
2022-07-27T11:52:06.322Z,4.30
2022-07-27T11:54:41.676Z,4.43
2022-07-27T11:57:12.873Z,4.35
2022-07-27T11:59:41.871Z,3.80
2022-07-27T12:02:09.743Z,3.83
2022-07-27T12:04:38.882Z,4.28
2022-07-27T12:09:50.511Z,2.95
2022-07-27T12:12:21.561Z,3.55
2022-07-27T12:14:54.602Z,4.03
2022-07-27T12:17:38.002Z,3.42
2022-07-27T12:20:13.594Z,3.47
2022-07-27T12:22:54.272Z,3.08
2022-07-27T12:25:25.665Z,2.83
2022-07-27T12:28:13.002Z,3.38
2022-07-27T12:30:45.695Z,3.83
2022-07-27T12:33:35.322Z,3.53
2022-07-27T12:36:05.273Z,3.33
2022-07-27T12:38:48.808Z,2.50
2022-07-27T12:41:38.213Z,2.08
2022-07-27T12:44:12.396Z,1.75
2022-07-27T12:47:27.687Z,1.35
2022-07-27T12:50:12.997Z,1.30
2022-07-27T12:52:49.109Z,1.10
2022-07-27T12:55:16.248Z,1.38
2022-07-27T12:57:55.861Z,1.10
2022-07-27T13:00:30.914Z,1.30
2022-07-27T13:03:04.145Z,1.38
2022-07-27T13:05:31.891Z,1.25
2022-07-27T13:07:59.254Z,1.45
2022-07-27T13:10:27.045Z,1.20
2022-07-27T13:12:53.887Z,1.00
2022-07-27T13:15:20.791Z,1.30
2022-07-27T13:17:48.704Z,1.23
2022-07-27T13:20:17.056Z,1.52
2022-07-27T13:22:45.471Z,1.40
2022-07-27T13:25:15.522Z,1.25
2022-07-27T13:27:45.193Z,1.30
2022-07-27T13:30:13.613Z,1.08
2022-07-27T13:32:41.443Z,1.08
2022-07-27T13:35:10.233Z,1.20
2022-07-27T13:37:37.103Z,1.05
2022-07-27T13:40:05.633Z,1.30
2022-07-27T13:42:32.461Z,1.00
2022-07-27T13:45:09.387Z,1.63
2022-07-27T13:47:41.343Z,2.10
2022-07-27T13:50:17.077Z,2.10
2022-07-27T13:52:46.707Z,1.52
2022-07-27T13:55:18.245Z,1.90
2022-07-27T13:57:46.955Z,1.95
2022-07-27T14:00:15.427Z,2.78
2022-07-27T14:02:42.762Z,3.40
2022-07-27T14:05:12.950Z,3.97
2022-07-27T14:07:40.836Z,4.35
2022-07-27T14:10:26.753Z,3.97
2022-07-27T14:12:58.834Z,3.60
2022-07-27T14:15:26.858Z,3.72
2022-07-27T14:17:53.799Z,5.63
2022-07-27T14:20:20.791Z,6.25
2022-07-27T14:22:47.770Z,6.93
2022-07-27T14:25:15.081Z,7.63
2022-07-27T14:27:45.740Z,6.88
2022-07-27T14:30:20.583Z,6.38
2022-07-27T14:32:48.697Z,6.32
2022-07-27T14:35:15.500Z,6.38
2022-07-27T14:37:43.590Z,5.55
2022-07-27T14:40:11.214Z,5.03
2022-07-27T14:42:42.557Z,4.88
2022-07-27T14:45:10.000Z,5.32
2022-07-27T14:47:37.900Z,5.38
2022-07-27T14:50:05.673Z,4.88
2022-07-27T14:52:32.550Z,5.10
2022-07-27T14:55:00.799Z,5.57
2022-07-27T14:57:28.221Z,5.60
2022-07-27T14:59:57.419Z,5.50
2022-07-27T15:02:26.204Z,5.18
2022-07-27T15:04:53.077Z,5.93
2022-07-27T15:07:27.054Z,5.50
2022-07-27T15:09:53.809Z,5.00
2022-07-27T15:12:20.820Z,5.03
2022-07-27T15:14:47.601Z,5.30
2022-07-27T15:17:16.620Z,5.40
2022-07-27T15:19:43.534Z,5.53
2022-07-27T15:22:10.369Z,5.60
2022-07-27T15:24:38.499Z,5.38
2022-07-27T15:27:05.570Z,5.22
2022-07-27T15:29:33.897Z,5.20
2022-07-27T15:32:02.057Z,5.30
2022-07-27T15:34:29.454Z,4.55
2022-07-27T15:36:58.765Z,5.10
2022-07-27T15:39:25.793Z,4.95
2022-07-27T15:41:52.643Z,4.55
2022-07-27T15:44:21.073Z,4.18
2022-07-27T15:46:48.699Z,3.35
2022-07-27T15:49:16.598Z,3.20
2022-07-27T15:51:56.101Z,3.03
2022-07-27T15:54:30.138Z,3.15
2022-07-27T15:57:07.003Z,3.72
2022-07-27T15:59:36.532Z,3.50
2022-07-27T16:07:27.634Z,3.22
2022-07-27T16:10:30.175Z,3.25
2022-07-27T16:12:57.917Z,3.65
2022-07-27T16:15:55.962Z,3.60
2022-07-27T16:18:23.493Z,3.15
2022-07-27T16:20:51.201Z,3.42
2022-07-27T16:23:25.429Z,3.97
2022-07-27T16:26:04.621Z,3.63
2022-07-27T16:28:34.227Z,3.25
2022-07-27T16:31:01.505Z,3.57
2022-07-27T16:33:28.375Z,3.17
2022-07-27T16:35:55.191Z,3.08
2022-07-27T16:38:21.957Z,3.25
2022-07-27T16:40:48.852Z,3.08
2022-07-27T16:43:15.695Z,3.60
2022-07-27T16:45:42.553Z,3.30
2022-07-27T16:48:10.087Z,3.45
2022-07-27T16:50:36.803Z,3.13
2022-07-27T16:53:04.111Z,3.33
2022-07-27T16:55:31.173Z,3.58
2022-07-27T16:57:57.973Z,3.53
2022-07-27T17:00:24.943Z,2.92
2022-07-27T17:02:51.930Z,3.30
2022-07-27T17:05:19.260Z,2.70
2022-07-27T17:07:46.140Z,2.70
2022-07-27T17:10:13.024Z,2.97
2022-07-27T17:12:53.634Z,2.95
2022-07-27T17:15:23.133Z,3.45
2022-07-27T17:17:53.044Z,3.50
2022-07-27T17:20:34.222Z,3.20
2022-07-27T17:23:04.039Z,2.90
2022-07-27T17:25:30.916Z,3.33
2022-07-27T17:27:58.396Z,3.28
2022-07-27T17:30:25.476Z,3.40
2022-07-27T17:32:53.543Z,3.58
2022-07-27T17:35:20.676Z,3.55
2022-07-27T17:38:05.694Z,3.65
2022-07-27T17:40:33.635Z,3.58
2022-07-27T17:43:00.413Z,3.90
2022-07-27T17:45:27.539Z,3.50
2022-07-27T17:47:54.762Z,3.38
2022-07-27T17:50:21.647Z,3.13
2022-07-27T17:52:48.639Z,3.20
2022-07-27T17:55:15.478Z,3.88
2022-07-27T17:57:42.342Z,4.10
2022-07-27T18:00:11.130Z,4.00
2022-07-27T18:02:37.961Z,3.80
2022-07-27T18:05:05.254Z,3.78
2022-07-27T18:07:39.120Z,3.60
2022-07-27T18:10:08.068Z,3.33
2022-07-27T18:12:35.815Z,3.65
2022-07-27T18:15:21.397Z,3.60
2022-07-27T18:17:48.317Z,3.83
2022-07-27T18:20:15.297Z,2.90
2022-07-27T18:22:43.902Z,2.88
2022-07-27T18:25:11.781Z,2.70
2022-07-27T18:27:38.749Z,3.10
2022-07-27T18:30:06.322Z,3.13
2022-07-27T18:32:33.739Z,3.58
2022-07-27T18:35:01.920Z,3.55
2022-07-27T18:37:28.932Z,4.00
2022-07-27T18:39:55.786Z,3.35
2022-07-27T18:42:22.972Z,2.90
2022-07-27T18:44:49.988Z,3.00
2022-07-27T18:47:16.846Z,2.70
2022-07-27T18:49:43.732Z,2.67
2022-07-27T18:52:10.611Z,2.80
2022-07-27T18:54:37.754Z,2.97
2022-07-27T18:57:05.824Z,2.80
2022-07-27T18:59:33.755Z,2.45
2022-07-27T19:02:07.674Z,3.45
2022-07-27T19:04:34.971Z,3.10
2022-07-27T19:07:01.899Z,3.42
2022-07-27T19:09:28.802Z,2.70
2022-07-27T19:11:55.604Z,2.95
2022-07-27T19:14:25.188Z,2.63
2022-07-27T19:16:52.466Z,3.35
2022-07-27T19:19:23.119Z,3.50
2022-07-27T19:21:50.611Z,2.92
2022-07-27T19:24:18.873Z,2.53
2022-07-27T19:26:45.787Z,3.33
2022-07-27T19:29:13.925Z,3.20
2022-07-27T19:31:40.907Z,2.92
2022-07-27T19:34:08.504Z,3.20
2022-07-27T19:36:35.778Z,2.90
2022-07-27T19:39:07.572Z,3.20
2022-07-27T19:41:35.244Z,2.95
2022-07-27T19:44:02.706Z,3.13
2022-07-27T19:46:31.916Z,3.00
2022-07-27T19:48:59.434Z,3.30
2022-07-27T19:51:26.953Z,2.90
2022-07-27T19:53:54.374Z,2.95
2022-07-27T19:56:21.305Z,2.97
2022-07-27T19:58:48.340Z,2.85
2022-07-27T20:01:15.189Z,3.03
2022-07-27T20:03:52.393Z,3.20
2022-07-27T20:08:49.179Z,3.22
2022-07-27T20:11:16.294Z,3.60
2022-07-27T20:13:43.221Z,3.40
2022-07-27T20:16:10.673Z,3.55
2022-07-27T20:18:38.670Z,2.95
2022-07-27T20:21:16.618Z,3.00
2022-07-27T20:23:52.508Z,3.25
2022-07-27T20:26:21.437Z,3.10
2022-07-27T20:28:50.687Z,3.67
2022-07-27T20:31:18.583Z,3.60
2022-07-27T20:33:45.828Z,3.15
2022-07-27T20:36:14.140Z,3.63
2022-07-27T20:38:41.313Z,3.60
2022-07-27T20:41:08.402Z,3.50
2022-07-27T20:43:35.412Z,3.53
2022-07-27T20:46:02.302Z,3.60
2022-07-27T20:48:29.336Z,3.13
2022-07-27T20:50:56.345Z,2.95
2022-07-27T20:53:24.579Z,3.33
2022-07-27T20:55:52.136Z,3.60
2022-07-27T20:58:18.998Z,3.45
2022-07-27T21:00:46.286Z,3.72
2022-07-27T21:03:13.128Z,3.55
2022-07-27T21:05:39.960Z,3.63
2022-07-27T21:08:07.131Z,3.25
2022-07-27T21:10:34.266Z,3.22
2022-07-27T21:13:01.062Z,3.58
2022-07-27T21:15:33.681Z,3.70
2022-07-27T21:18:01.762Z,3.50
2022-07-27T21:20:29.207Z,3.25
2022-07-27T21:23:14.733Z,3.78
2022-07-27T21:25:41.593Z,3.22
2022-07-27T21:28:10.724Z,3.70
2022-07-27T21:30:40.132Z,3.83
2022-07-27T21:33:06.940Z,3.63
2022-07-27T21:35:33.955Z,3.58
2022-07-27T21:38:02.955Z,3.47
2022-07-27T21:40:29.713Z,3.35
2022-07-27T21:42:57.101Z,3.75
2022-07-27T21:45:24.108Z,3.80
2022-07-27T21:47:51.112Z,3.35
2022-07-27T21:50:18.274Z,3.22
2022-07-27T21:52:45.045Z,3.35
2022-07-27T21:55:11.834Z,3.50
2022-07-27T21:57:38.602Z,3.70
2022-07-27T22:00:06.999Z,3.22
2022-07-27T22:02:33.796Z,3.58
2022-07-27T22:05:00.534Z,3.28
2022-07-27T22:07:27.593Z,3.70
2022-07-27T22:09:54.341Z,2.92
2022-07-27T22:12:21.177Z,3.30
2022-07-27T22:14:47.937Z,3.53
2022-07-27T22:17:14.887Z,3.10
2022-07-27T22:19:41.662Z,3.05
2022-07-27T22:22:08.442Z,3.10
2022-07-27T22:24:35.181Z,3.10
2022-07-27T22:27:02.038Z,3.30
2022-07-27T22:29:28.781Z,3.03
2022-07-27T22:31:55.765Z,3.08
2022-07-27T22:34:22.720Z,3.40
2022-07-27T22:36:49.516Z,3.10
2022-07-27T22:39:16.343Z,3.13
2022-07-27T22:41:43.059Z,3.30
2022-07-27T22:44:09.819Z,3.35
2022-07-27T22:46:36.591Z,3.33
2022-07-27T22:49:04.423Z,3.47
2022-07-27T22:51:49.411Z,3.10
2022-07-27T22:54:17.732Z,3.35
2022-07-27T22:56:44.692Z,3.20
2022-07-27T22:59:11.505Z,4.03
2022-07-27T23:03:57.500Z,4.00
2022-07-27T23:06:24.463Z,3.30
2022-07-27T23:08:51.317Z,3.25
2022-07-27T23:11:18.056Z,3.00
2022-07-27T23:13:44.930Z,3.47
2022-07-27T23:16:12.263Z,3.85
2022-07-27T23:18:39.246Z,3.17
2022-07-27T23:21:06.028Z,3.55
2022-07-27T23:23:35.241Z,3.28
2022-07-27T23:26:06.641Z,3.92
2022-07-27T23:28:36.285Z,3.55
2022-07-27T23:31:03.166Z,3.33
2022-07-27T23:33:30.379Z,3.40
2022-07-27T23:35:57.220Z,3.33
2022-07-27T23:38:23.999Z,3.55
2022-07-27T23:40:51.050Z,3.75
2022-07-27T23:43:17.830Z,3.38
2022-07-27T23:45:44.623Z,3.58
2022-07-27T23:48:11.449Z,3.13
2022-07-27T23:50:38.211Z,3.60
2022-07-27T23:53:05.011Z,3.50
2022-07-27T23:55:36.081Z,3.85
2022-07-27T23:58:03.015Z,3.50
